Time;durP1;ratioP1;P1;durP2;ratioP2;P2;SDS_P1;SDS_P2;PMS_P1;PMS_P2;Temp;Humidity;BMP_temperature;BMP_pressure;BME280_temperature;BME280_humidity;BME280_pressure;Samples;Min_cycle;Max_cycle;Signal;HPM_P1;HPM_P2
2023/01/11 00:00:31;;;;;;;10.80;4.00;;;20.30;57.00;;;;;;4969536;28;20594;-75
2023/01/11 00:02:58;;;;;;;10.48;3.50;;;20.30;56.90;;;;;;4968154;28;20027;-75
2023/01/11 00:05:24;;;;;;;17.48;4.65;;;20.30;56.80;;;;;;4973142;28;20081;-75
2023/01/11 00:07:51;;;;;;;9.70;3.50;;;20.30;56.90;;;;;;4957032;28;20466;-75
2023/01/11 00:10:17;;;;;;;12.68;4.15;;;20.30;57.00;;;;;;4968779;28;20526;-74
2023/01/11 00:12:43;;;;;;;15.52;3.63;;;20.30;56.80;;;;;;4969960;28;20026;-75
2023/01/11 00:15:09;;;;;;;13.40;3.85;;;20.30;56.80;;;;;;4937246;28;20039;-74
2023/01/11 00:17:35;;;;;;;9.77;3.55;;;20.30;56.70;;;;;;4952155;28;20546;-73
2023/01/11 00:20:01;;;;;;;11.65;3.40;;;20.30;56.70;;;;;;4953742;28;20035;-74
2023/01/11 00:22:26;;;;;;;11.13;3.53;;;20.30;56.70;;;;;;4952665;28;20026;-74
2023/01/11 00:24:52;;;;;;;8.90;3.30;;;20.30;56.70;;;;;;4953454;28;20042;-75
2023/01/11 00:27:18;;;;;;;11.80;3.20;;;20.30;56.70;;;;;;4968768;28;20057;-74
2023/01/11 00:29:44;;;;;;;14.60;3.55;;;20.30;56.90;;;;;;4952556;28;20034;-74
2023/01/11 00:32:10;;;;;;;13.48;3.58;;;20.30;56.70;;;;;;4952641;28;20038;-75
2023/01/11 00:34:36;;;;;;;11.35;3.47;;;20.30;56.70;;;;;;4921215;28;20498;-74
2023/01/11 00:37:03;;;;;;;10.70;3.30;;;20.30;56.60;;;;;;4951797;28;20093;-75
2023/01/11 00:39:29;;;;;;;10.95;3.60;;;20.30;56.50;;;;;;4951946;28;20038;-75
2023/01/11 00:50:08;;;;;;;11.75;3.63;;;20.30;56.30;;;;;;4973887;28;20037;-75
2023/01/11 00:52:34;;;;;;;9.88;3.28;;;20.30;56.20;;;;;;4972176;28;20034;-75
2023/01/11 00:55:00;;;;;;;13.60;3.17;;;20.30;57.00;;;;;;4956061;28;20495;-75
2023/01/11 00:57:26;;;;;;;9.55;2.92;;;20.30;56.40;;;;;;4960937;28;20034;-75
2023/01/11 00:59:51;;;;;;;11.57;3.58;;;20.30;56.40;;;;;;4972632;28;20038;-75
2023/01/11 01:02:17;;;;;;;10.48;3.03;;;20.30;56.50;;;;;;4939476;28;20046;-74
2023/01/11 01:04:43;;;;;;;9.25;3.03;;;20.40;56.70;;;;;;4979345;28;20030;-75
2023/01/11 01:07:10;;;;;;;10.98;2.92;;;20.40;57.00;;;;;;4957369;28;20560;-75
2023/01/11 01:09:36;;;;;;;12.18;3.00;;;20.40;57.20;;;;;;4970752;28;20461;-74
2023/01/11 01:12:02;;;;;;;11.32;3.20;;;20.40;57.50;;;;;;4961594;28;20049;-75
2023/01/11 01:14:31;;;;;;;11.30;3.17;;;20.40;57.80;;;;;;4972965;28;20058;-75
2023/01/11 01:17:07;;;;;;;11.82;3.95;;;20.40;57.80;;;;;;4938674;28;20082;-74
2023/01/11 01:19:35;;;;;;;9.25;3.10;;;20.30;57.80;;;;;;5027269;23;20045;-72
2023/01/11 01:22:00;;;;;;;8.20;3.22;;;20.30;57.90;;;;;;5030727;28;20026;-72
2023/01/11 01:24:28;;;;;;;9.32;3.15;;;20.30;57.80;;;;;;5031903;28;20084;-72
2023/01/11 01:26:55;;;;;;;10.73;3.28;;;20.30;57.60;;;;;;5026317;28;20030;-72
2023/01/11 01:29:21;;;;;;;18.00;3.55;;;20.30;57.50;;;;;;5029731;28;20033;-72
2023/01/11 01:31:47;;;;;;;8.75;3.38;;;20.30;57.70;;;;;;5028280;28;20436;-72
2023/01/11 01:34:13;;;;;;;7.88;3.20;;;20.40;57.90;;;;;;5025565;28;20033;-72
2023/01/11 01:36:39;;;;;;;9.38;3.47;;;20.40;58.00;;;;;;5029401;28;20440;-72
2023/01/11 01:39:06;;;;;;;8.77;2.58;;;20.40;58.00;;;;;;5031577;28;20044;-72
2023/01/11 01:41:33;;;;;;;8.50;3.00;;;20.30;58.10;;;;;;5029923;28;20544;-72
2023/01/11 01:44:01;;;;;;;12.57;3.42;;;20.30;58.50;;;;;;5033258;28;20037;-72
2023/01/11 01:46:32;;;;;;;13.98;3.38;;;20.40;58.70;;;;;;5038282;28;20029;-72
2023/01/11 01:49:07;;;;;;;12.73;2.85;;;20.40;59.00;;;;;;5033472;28;20068;-72
2023/01/11 01:51:39;;;;;;;7.10;2.67;;;20.40;58.90;;;;;;5032819;28;20056;-73
2023/01/11 01:54:09;;;;;;;13.73;2.88;;;20.30;58.80;;;;;;5013446;28;20037;-72
2023/01/11 01:56:41;;;;;;;10.57;3.60;;;20.30;58.80;;;;;;5027221;28;20025;-72
2023/01/11 01:59:11;;;;;;;12.07;2.97;;;20.30;58.70;;;;;;5023010;28;20037;-72
2023/01/11 02:01:47;;;;;;;13.23;3.17;;;20.30;58.70;;;;;;5026416;28;20033;-72
2023/01/11 02:04:21;;;;;;;12.32;3.25;;;20.30;58.80;;;;;;5013422;28;20026;-72
2023/01/11 02:06:47;;;;;;;11.15;3.10;;;20.30;58.90;;;;;;5023103;28;20075;-72
2023/01/11 02:09:41;;;;;;;7.90;2.90;;;20.30;59.00;;;;;;5033013;28;20025;-72
2023/01/11 02:12:07;;;;;;;12.63;3.08;;;20.30;59.10;;;;;;5033007;28;20033;-72
2023/01/11 02:14:35;;;;;;;13.30;3.67;;;20.30;59.20;;;;;;5013362;28;20040;-72
2023/01/11 02:17:01;;;;;;;13.38;3.28;;;20.30;59.30;;;;;;4997242;28;20042;-72
2023/01/11 02:19:48;;;;;;;9.77;3.20;;;20.30;59.60;;;;;;5032894;28;20068;-72
2023/01/11 02:22:33;;;;;;;13.73;2.95;;;20.30;59.60;;;;;;5032946;28;20029;-73
2023/01/11 02:25:30;;;;;;;10.60;2.90;;;20.30;59.60;;;;;;5031437;28;20298;-72
2023/01/11 02:28:20;;;;;;;10.18;3.40;;;20.30;59.80;;;;;;5035522;28;20086;-73
2023/01/11 02:31:16;;;;;;;10.43;3.38;;;20.30;59.90;;;;;;5032853;28;20037;-72
2023/01/11 02:34:04;;;;;;;9.15;2.95;;;20.30;59.90;;;;;;5032593;28;20512;-72
2023/01/11 02:37:03;;;;;;;9.00;3.13;;;20.30;60.00;;;;;;5032549;28;20087;-72
2023/01/11 02:39:35;;;;;;;8.05;2.72;;;20.30;60.10;;;;;;5032984;28;20057;-72
2023/01/11 02:45:33;;;;;;;9.18;2.63;;;20.30;60.30;;;;;;5029756;28;20385;-72
2023/01/11 02:48:07;;;;;;;10.55;3.38;;;20.30;60.50;;;;;;5021900;28;20366;-73
2023/01/11 02:50:57;;;;;;;6.15;2.75;;;20.30;60.60;;;;;;5032313;28;20029;-72
2023/01/11 02:53:48;;;;;;;14.70;3.25;;;20.30;60.60;;;;;;5021218;28;20083;-72
2023/01/11 02:56:22;;;;;;;8.85;3.20;;;20.30;60.80;;;;;;5032379;28;20029;-72
2023/01/11 02:58:50;;;;;;;11.15;3.28;;;20.30;60.80;;;;;;5032122;28;20108;-72
2023/01/11 03:01:18;;;;;;;8.30;3.50;;;20.30;61.00;;;;;;5031366;28;20022;-72
2023/01/11 03:03:44;;;;;;;8.68;2.83;;;20.30;61.00;;;;;;5031839;28;20116;-72
2023/01/11 03:06:10;;;;;;;8.77;3.17;;;20.20;60.90;;;;;;5014853;28;20104;-72
2023/01/11 03:09:12;;;;;;;9.48;2.88;;;20.30;61.00;;;;;;5032222;28;20419;-72
2023/01/11 03:15:28;;;;;;;7.53;2.60;;;20.30;61.00;;;;;;5006770;28;20509;-72
2023/01/11 03:18:15;;;;;;;7.47;2.95;;;20.30;61.10;;;;;;5012337;28;20045;-73
2023/01/11 03:20:48;;;;;;;6.68;2.90;;;20.30;61.20;;;;;;5006660;28;20144;-72
2023/01/11 03:23:23;;;;;;;8.90;3.20;;;20.20;61.20;;;;;;5031699;28;20466;-72
2023/01/11 03:26:04;;;;;;;10.30;2.78;;;20.30;61.30;;;;;;5031822;28;20079;-72
2023/01/11 03:28:37;;;;;;;7.45;2.72;;;20.30;61.40;;;;;;5013866;28;20029;-72
2023/01/11 03:31:25;;;;;;;8.55;3.22;;;20.30;61.40;;;;;;5028476;28;20079;-72
2023/01/11 03:34:08;;;;;;;9.07;2.78;;;20.30;61.50;;;;;;5030929;28;20025;-72
2023/01/11 03:36:53;;;;;;;11.15;3.20;;;20.30;61.50;;;;;;5025154;28;20032;-72
2023/01/11 03:40:07;;;;;;;11.52;2.88;;;20.30;61.70;;;;;;5031568;28;20033;-72
2023/01/11 03:43:09;;;;;;;5.72;2.75;;;20.30;61.80;;;;;;4975979;28;20116;-72
2023/01/11 03:45:23;;;;;;;14.83;3.13;;;20.30;61.80;;;;;;5023504;28;20053;-72
2023/01/11 03:47:51;;;;;;;9.13;3.08;;;20.30;61.80;;;;;;5023143;28;20036;-72
2023/01/11 03:50:18;;;;;;;9.55;2.65;;;20.30;61.90;;;;;;5031046;28;20444;-72
2023/01/11 03:52:44;;;;;;;14.05;2.88;;;20.30;62.00;;;;;;5029989;28;20029;-72
2023/01/11 03:55:14;;;;;;;8.70;2.85;;;20.30;62.00;;;;;;5029732;28;20249;-73
2023/01/11 03:57:44;;;;;;;7.60;2.58;;;20.30;62.10;;;;;;5019210;28;20053;-72
2023/01/11 04:00:10;;;;;;;9.10;2.78;;;20.30;62.00;;;;;;5013360;28;20033;-72
2023/01/11 04:02:39;;;;;;;7.05;2.75;;;20.30;62.10;;;;;;5029525;28;20026;-72
2023/01/11 04:05:06;;;;;;;12.18;2.85;;;20.30;62.00;;;;;;5028614;28;20477;-72
2023/01/11 04:07:32;;;;;;;6.45;2.67;;;20.30;62.20;;;;;;5007149;28;20075;-73
2023/01/11 04:09:58;;;;;;;8.73;2.88;;;20.30;62.40;;;;;;5030975;28;20428;-72
2023/01/11 04:12:24;;;;;;;11.38;2.80;;;20.30;62.40;;;;;;5030050;28;20029;-72
2023/01/11 04:14:51;;;;;;;10.30;2.72;;;20.30;62.50;;;;;;5030110;28;20411;-73
2023/01/11 04:17:16;;;;;;;13.23;3.08;;;20.30;62.50;;;;;;5030857;28;20489;-72
2023/01/11 04:19:43;;;;;;;9.30;2.92;;;20.30;62.40;;;;;;5030877;28;20034;-72
2023/01/11 04:22:09;;;;;;;8.05;2.70;;;20.20;62.50;;;;;;5011913;28;20030;-72
2023/01/11 04:24:34;;;;;;;9.00;2.85;;;20.20;62.40;;;;;;5023090;28;20048;-73
2023/01/11 04:27:00;;;;;;;9.23;2.63;;;20.30;62.50;;;;;;5029798;28;20030;-72
2023/01/11 04:29:26;;;;;;;8.88;2.80;;;20.20;62.50;;;;;;5013500;28;20021;-72
2023/01/11 04:31:51;;;;;;;6.43;2.45;;;20.30;62.70;;;;;;5030369;28;20493;-72
2023/01/11 04:34:17;;;;;;;9.70;2.92;;;20.30;62.60;;;;;;5029752;28;20477;-73
2023/01/11 04:36:43;;;;;;;10.23;2.60;;;20.30;62.70;;;;;;5030543;28;20184;-72
2023/01/11 04:39:09;;;;;;;7.13;2.80;;;20.30;62.70;;;;;;5030692;28;20029;-72
2023/01/11 04:44:23;;;;;;;9.50;2.22;;;20.30;62.90;;;;;;5022845;28;20022;-72
2023/01/11 04:46:49;;;;;;;6.25;2.47;;;20.30;63.40;;;;;;5029662;28;20541;-72
2023/01/11 04:49:15;;;;;;;7.85;2.80;;;20.30;62.90;;;;;;5030381;28;20497;-72
2023/01/11 04:51:41;;;;;;;7.40;2.90;;;20.30;63.00;;;;;;5030431;28;20362;-72
2023/01/11 04:54:06;;;;;;;4.90;2.70;;;20.30;62.90;;;;;;5028849;28;20417;-72
2023/01/11 04:56:32;;;;;;;9.85;2.75;;;20.30;63.10;;;;;;5029816;28;20053;-72
2023/01/11 04:58:58;;;;;;;8.65;2.50;;;20.30;63.20;;;;;;5020785;28;20044;-73
2023/01/11 05:01:24;;;;;;;5.22;2.50;;;20.30;63.20;;;;;;5012659;28;20034;-72
2023/01/11 05:03:50;;;;;;;6.20;2.50;;;20.30;63.20;;;;;;5030619;28;20528;-72
2023/01/11 05:06:18;;;;;;;5.35;2.45;;;20.30;63.20;;;;;;5030560;28;20466;-72
2023/01/11 05:08:48;;;;;;;7.32;3.03;;;20.20;63.30;;;;;;5010849;28;20470;-72
2023/01/11 05:11:14;;;;;;;7.50;2.75;;;20.30;62.20;;;;;;5030111;28;20064;-72
2023/01/11 05:13:40;;;;;;;15.38;2.90;;;20.30;63.20;;;;;;5023320;28;20034;-73
2023/01/11 05:16:06;;;;;;;8.23;2.35;;;20.30;63.50;;;;;;5028445;28;20032;-73
2023/01/11 05:18:32;;;;;;;7.20;2.70;;;20.30;63.40;;;;;;5025115;28;20109;-72
2023/01/11 05:20:58;;;;;;;6.85;2.47;;;20.30;63.30;;;;;;5026090;28;20037;-72
2023/01/11 05:23:23;;;;;;;7.50;2.83;;;20.20;63.40;;;;;;5030135;28;20497;-72
2023/01/11 05:25:49;;;;;;;8.95;2.90;;;20.30;63.40;;;;;;5012505;28;20033;-72
2023/01/11 05:28:15;;;;;;;11.38;2.83;;;20.30;63.20;;;;;;5030150;28;20064;-72
2023/01/11 05:30:41;;;;;;;6.90;2.60;;;20.30;63.50;;;;;;5029459;28;20064;-72
2023/01/11 05:33:06;;;;;;;5.07;2.30;;;20.30;63.50;;;;;;5018559;28;20026;-72
2023/01/11 05:35:32;;;;;;;5.75;2.55;;;20.30;63.40;;;;;;5024805;28;20028;-72
2023/01/11 05:37:58;;;;;;;9.40;2.72;;;20.30;63.30;;;;;;5016079;28;20508;-72
2023/01/11 05:40:23;;;;;;;5.53;2.55;;;20.30;63.50;;;;;;5033881;28;20029;-72
2023/01/11 05:42:49;;;;;;;8.13;2.65;;;20.30;63.50;;;;;;5016239;28;20032;-72
2023/01/11 05:45:27;;;;;;;8.10;2.42;;;20.30;63.60;;;;;;5032644;28;20026;-72
2023/01/11 05:47:53;;;;;;;8.90;2.33;;;20.30;63.60;;;;;;5024770;28;20366;-72
2023/01/11 05:50:19;;;;;;;8.38;2.72;;;20.30;63.70;;;;;;5033588;28;20043;-72
2023/01/11 05:52:45;;;;;;;9.20;2.58;;;20.30;63.70;;;;;;5033439;28;20115;-72
2023/01/11 05:55:11;;;;;;;6.70;2.47;;;20.30;63.70;;;;;;5033559;28;20025;-72
2023/01/11 05:57:40;;;;;;;5.13;2.35;;;20.30;63.70;;;;;;5032372;28;20033;-72
2023/01/11 06:00:06;;;;;;;7.38;2.58;;;20.30;63.70;;;;;;5015101;28;20084;-72
2023/01/11 06:02:34;;;;;;;6.80;2.47;;;20.30;63.90;;;;;;5028682;28;20041;-72
2023/01/11 06:05:00;;;;;;;5.82;2.22;;;20.20;63.70;;;;;;5012847;28;20070;-72
2023/01/11 06:07:25;;;;;;;6.15;2.42;;;20.30;63.90;;;;;;4999251;28;20069;-72
2023/01/11 06:09:51;;;;;;;8.73;2.58;;;20.30;63.90;;;;;;5006057;28;20036;-72
2023/01/11 06:12:17;;;;;;;8.38;2.88;;;20.30;63.60;;;;;;5023023;28;20037;-72
2023/01/11 06:14:43;;;;;;;9.55;2.53;;;20.20;63.70;;;;;;5016419;28;20026;-73
2023/01/11 06:17:09;;;;;;;7.22;2.53;;;20.20;63.60;;;;;;5031638;28;20108;-72
2023/01/11 06:19:34;;;;;;;7.53;2.95;;;20.20;63.80;;;;;;4999257;28;20069;-72
2023/01/11 06:22:00;;;;;;;7.82;2.20;;;20.20;63.70;;;;;;5014577;28;20099;-72
2023/01/11 06:24:26;;;;;;;7.22;2.55;;;20.30;63.90;;;;;;5033295;28;20481;-72
2023/01/11 06:26:53;;;;;;;4.68;2.20;;;20.30;63.90;;;;;;5031961;28;20025;-72
2023/01/11 06:29:18;;;;;;;8.00;2.45;;;20.20;63.90;;;;;;5037549;28;20359;-72
2023/01/11 06:31:44;;;;;;;6.10;2.45;;;20.30;63.90;;;;;;5032601;28;20040;-72
2023/01/11 06:34:10;;;;;;;9.02;2.70;;;20.30;63.60;;;;;;5015151;28;20030;-72
2023/01/11 06:36:37;;;;;;;6.43;2.72;;;20.30;63.80;;;;;;5016750;28;20041;-72
2023/01/11 06:39:03;;;;;;;6.78;2.25;;;20.30;63.90;;;;;;5032543;28;20098;-72
2023/01/11 06:41:29;;;;;;;6.07;2.50;;;20.30;63.60;;;;;;5014863;28;20549;-72
2023/01/11 06:43:55;;;;;;;6.93;2.70;;;20.30;63.80;;;;;;5030119;28;20164;-72
2023/01/11 06:46:21;;;;;;;6.78;2.38;;;20.30;64.00;;;;;;5031184;28;20140;-72
2023/01/11 06:48:47;;;;;;;6.53;2.30;;;20.30;63.80;;;;;;5002915;28;20029;-72
2023/01/11 06:51:14;;;;;;;5.53;2.45;;;20.30;63.70;;;;;;5029286;28;20026;-72
2023/01/11 06:53:41;;;;;;;6.13;2.05;;;20.20;63.40;;;;;;5026886;28;20107;-72
2023/01/11 06:56:10;;;;;;;9.60;2.70;;;20.20;63.70;;;;;;5007632;28;20067;-72
2023/01/11 06:58:37;;;;;;;7.28;2.33;;;20.30;63.90;;;;;;5014716;28;20029;-72
2023/01/11 07:01:02;;;;;;;6.38;2.58;;;20.30;63.80;;;;;;5035089;28;20103;-72
2023/01/11 07:03:29;;;;;;;8.05;2.65;;;20.30;64.00;;;;;;5014665;28;20041;-71
2023/01/11 07:05:56;;;;;;;6.38;2.60;;;20.30;64.10;;;;;;5030917;28;20448;-72
2023/01/11 07:08:25;;;;;;;4.63;2.38;;;20.30;64.20;;;;;;5016122;28;20037;-72
2023/01/11 07:10:51;;;;;;;6.43;2.22;;;20.30;64.00;;;;;;4992443;28;20116;-72
2023/01/11 07:13:17;;;;;;;6.50;2.72;;;20.30;64.10;;;;;;5031426;28;20112;-72
2023/01/11 07:15:49;;;;;;;4.85;2.40;;;20.30;64.10;;;;;;5014789;28;20083;-72
2023/01/11 07:18:19;;;;;;;6.93;2.22;;;20.30;64.30;;;;;;5014788;28;20057;-74
2023/01/11 07:20:44;;;;;;;4.93;2.40;;;20.30;64.10;;;;;;5025567;28;20072;-73
2023/01/11 07:23:10;;;;;;;4.85;2.30;;;20.30;64.30;;;;;;5018755;28;20064;-74
2023/01/11 07:25:36;;;;;;;5.32;2.33;;;20.30;64.00;;;;;;5030340;28;20046;-74
2023/01/11 07:28:04;;;;;;;6.82;2.40;;;20.30;64.10;;;;;;5031337;28;20079;-73
2023/01/11 07:30:33;;;;;;;5.60;2.38;;;20.30;64.00;;;;;;4997025;28;20044;-74
2023/01/11 07:32:59;;;;;;;6.38;2.85;;;20.30;64.10;;;;;;5022541;28;20026;-74
2023/01/11 07:35:26;;;;;;;12.40;2.35;;;20.30;64.30;;;;;;5005616;28;20053;-75
2023/01/11 07:37:52;;;;;;;7.32;2.13;;;20.30;64.40;;;;;;5031665;28;20033;-74
2023/01/11 07:40:18;;;;;;;9.02;2.45;;;20.30;63.90;;;;;;5030493;28;20091;-75
2023/01/11 07:45:35;;;;;;;14.93;2.63;;;20.30;64.10;;;;;;4993288;28;20412;-75
2023/01/11 07:48:03;;;;;;;8.15;2.25;;;20.30;64.30;;;;;;5010679;28;20021;-74
2023/01/11 07:50:28;;;;;;;9.05;2.67;;;20.30;64.60;;;;;;5021174;28;20021;-74
2023/01/11 07:52:54;;;;;;;9.27;2.13;;;20.30;64.50;;;;;;5012893;28;20610;-74
2023/01/11 07:55:20;;;;;;;5.43;2.35;;;20.30;64.60;;;;;;5012594;28;20021;-74
2023/01/11 07:57:46;;;;;;;7.68;2.45;;;20.30;64.70;;;;;;5023111;28;20036;-73
2023/01/11 08:00:13;;;;;;;13.50;2.55;;;20.30;64.80;;;;;;5028079;28;20076;-73
2023/01/11 08:02:38;;;;;;;12.75;2.58;;;20.30;64.70;;;;;;4997516;28;20121;-72
2023/01/11 08:05:05;;;;;;;10.35;2.42;;;20.30;64.80;;;;;;5028650;28;20100;-72
2023/01/11 08:07:30;;;;;;;8.50;2.40;;;20.30;64.40;;;;;;5030792;28;20028;-74
2023/01/11 08:09:56;;;;;;;8.02;2.40;;;20.30;64.60;;;;;;5029135;28;20021;-73
2023/01/11 08:15:09;;;;;;;9.52;2.63;;;20.30;63.90;;;;;;5030331;28;20025;-73
2023/01/11 08:17:35;;;;;;;22.42;3.15;;;20.30;64.50;;;;;;5029856;28;20033;-73
2023/01/11 08:20:01;;;;;;;14.80;3.92;;;20.30;62.40;;;;;;5026168;28;20036;-73
2023/01/11 08:22:27;;;;;;;18.95;4.38;;;19.90;53.00;;;;;;5012687;28;20026;-74
2023/01/11 08:24:53;;;;;;;11.48;3.85;;;19.70;52.90;;;;;;5030893;28;20083;-74
2023/01/11 08:27:18;;;;;;;7.85;3.38;;;19.70;52.90;;;;;;5031036;28;20017;-74
2023/01/11 08:29:44;;;;;;;9.82;3.60;;;19.70;54.90;;;;;;5031059;28;20025;-74
2023/01/11 08:32:13;;;;;;;10.10;3.30;;;19.80;57.30;;;;;;5030507;28;20187;-74
2023/01/11 08:34:39;;;;;;;8.98;3.13;;;19.90;57.40;;;;;;5031321;28;20478;-74
2023/01/11 08:37:08;;;;;;;8.23;3.35;;;20.00;58.00;;;;;;5030736;28;20025;-74
2023/01/11 08:39:33;;;;;;;8.07;3.13;;;20.00;58.10;;;;;;5030724;28;20025;-74
2023/01/11 08:41:59;;;;;;;7.70;3.10;;;20.10;58.20;;;;;;5030635;28;20029;-74
2023/01/11 08:44:25;;;;;;;11.05;3.35;;;20.10;58.20;;;;;;5029716;28;20030;-74
2023/01/11 08:46:52;;;;;;;11.38;3.22;;;20.10;58.00;;;;;;5030858;28;20029;-74
2023/01/11 08:49:17;;;;;;;11.07;3.28;;;20.20;58.20;;;;;;5030420;28;20405;-75
2023/01/11 08:51:43;;;;;;;9.82;3.40;;;20.20;58.30;;;;;;5030514;28;20032;-75
2023/01/11 08:54:12;;;;;;;8.52;3.17;;;20.20;58.50;;;;;;5030476;28;20580;-72
2023/01/11 08:56:37;;;;;;;7.47;2.70;;;20.20;58.80;;;;;;5013357;28;20060;-72
2023/01/11 08:59:04;;;;;;;8.13;2.80;;;20.10;58.90;;;;;;5030446;28;20499;-73
2023/01/11 09:01:32;;;;;;;7.20;3.10;;;20.20;59.70;;;;;;5029133;28;20056;-74
2023/01/11 09:03:58;;;;;;;7.95;3.05;;;20.20;59.10;;;;;;5030558;28;20083;-73
2023/01/11 09:06:24;;;;;;;8.75;3.22;;;20.20;59.30;;;;;;5013198;28;20026;-73
2023/01/11 09:08:50;;;;;;;7.15;3.10;;;20.20;59.50;;;;;;5031389;28;20030;-73
2023/01/11 09:14:00;;;;;;;7.18;3.03;;;20.20;59.70;;;;;;5034237;28;20056;-73
2023/01/11 09:16:26;;;;;;;8.70;3.00;;;20.20;59.80;;;;;;5034625;28;20065;-73
2023/01/11 09:18:52;;;;;;;11.38;2.92;;;20.20;59.90;;;;;;5034152;28;20030;-73
2023/01/11 09:21:18;;;;;;;8.85;2.95;;;20.20;60.00;;;;;;5000099;28;20033;-73
2023/01/11 09:23:44;;;;;;;9.43;2.85;;;20.20;60.10;;;;;;5034218;28;20028;-73
2023/01/11 09:26:11;;;;;;;7.95;2.80;;;20.20;60.20;;;;;;5034238;28;20025;-73
2023/01/11 09:28:37;;;;;;;7.45;2.83;;;20.20;60.20;;;;;;5034265;28;20032;-73
2023/01/11 09:31:03;;;;;;;5.53;2.50;;;20.20;60.30;;;;;;5034063;28;20029;-73
2023/01/11 09:33:28;;;;;;;6.45;2.97;;;20.20;60.40;;;;;;5032569;28;20370;-73
2023/01/11 09:35:57;;;;;;;6.22;2.67;;;20.20;60.50;;;;;;5016358;28;20036;-73
2023/01/11 09:38:28;;;;;;;13.30;4.80;;;20.20;60.50;;;;;;5034017;28;20400;-73
2023/01/11 09:41:18;;;;;;;7.78;3.67;;;20.20;59.50;;;;;;5028943;28;20021;-73
2023/01/11 09:44:09;;;;;;;10.38;3.45;;;20.20;60.00;;;;;;5024488;28;20389;-73
2023/01/11 09:46:41;;;;;;;9.68;3.40;;;20.20;60.40;;;;;;5031190;28;20044;-73
2023/01/11 09:49:14;;;;;;;13.07;3.53;;;20.20;60.50;;;;;;5031984;28;20370;-73
2023/01/11 09:51:42;;;;;;;9.27;3.53;;;20.30;60.50;;;;;;5030482;28;20481;-73
2023/01/11 09:54:16;;;;;;;7.60;3.75;;;20.20;60.60;;;;;;5032049;28;20032;-73
2023/01/11 09:56:59;;;;;;;8.15;3.60;;;20.20;61.00;;;;;;5031368;28;20285;-73
2023/01/11 09:59:33;;;;;;;12.32;3.83;;;20.20;61.00;;;;;;5031416;28;20033;-73
2023/01/11 10:02:18;;;;;;;10.43;3.70;;;20.30;60.80;;;;;;5030901;28;20159;-72
2023/01/11 10:05:08;;;;;;;7.78;3.53;;;20.30;60.80;;;;;;5031575;28;20029;-75
2023/01/11 10:07:57;;;;;;;13.52;3.63;;;20.30;61.10;;;;;;5013750;28;20045;-74
2023/01/11 10:10:32;;;;;;;17.23;4.47;;;20.30;61.20;;;;;;5029832;28;20033;-73
2023/01/11 10:13:09;;;;;;;11.75;3.83;;;20.30;61.30;;;;;;5029193;28;20076;-72
2023/01/11 10:15:41;;;;;;;12.75;3.50;;;20.40;61.60;;;;;;5031377;28;20464;-74
2023/01/11 10:18:21;;;;;;;12.52;4.55;;;20.40;61.70;;;;;;4997567;28;20037;-73
2023/01/11 10:20:51;;;;;;;19.92;5.00;;;20.40;62.70;;;;;;5030283;28;20112;-72
2023/01/11 10:23:45;;;;;;;11.15;4.53;;;20.40;62.60;;;;;;4996875;28;20068;-73
2023/01/11 10:26:28;;;;;;;16.45;4.55;;;20.40;62.40;;;;;;5030751;28;20029;-74
2023/01/11 10:29:20;;;;;;;11.30;4.43;;;20.40;62.20;;;;;;5031098;28;20031;-74
2023/01/11 10:34:48;;;;;;;14.95;4.22;;;20.40;62.00;;;;;;5030934;28;20039;-73
2023/01/11 10:43:07;;;;;;;16.60;4.50;;;20.40;62.60;;;;;;5028713;28;20493;-72
2023/01/11 10:45:49;;;;;;;9.93;4.20;;;20.40;62.40;;;;;;5029286;28;20033;-73
2023/01/11 10:48:30;;;;;;;9.90;4.05;;;20.40;62.40;;;;;;5030216;28;20026;-73
2023/01/11 10:51:26;;;;;;;10.20;3.97;;;20.40;62.40;;;;;;5030097;28;20041;-73
2023/01/11 10:53:54;;;;;;;9.38;3.83;;;20.40;62.30;;;;;;5012492;28;20026;-72
2023/01/11 10:56:51;;;;;;;8.63;4.22;;;20.40;62.30;;;;;;5030482;28;20037;-72
2023/01/11 10:59:52;;;;;;;10.05;4.18;;;20.40;62.20;;;;;;5030409;28;20504;-73
2023/01/11 11:02:56;;;;;;;11.05;3.92;;;20.40;62.30;;;;;;5029672;28;20079;-73
2023/01/11 11:05:41;;;;;;;16.35;4.13;;;20.40;62.40;;;;;;5012280;28;20421;-73
2023/01/11 11:08:35;;;;;;;9.65;3.90;;;20.40;62.30;;;;;;5030396;28;20040;-72
2023/01/11 11:11:05;;;;;;;7.82;3.78;;;20.40;62.30;;;;;;5030400;28;20040;-73
2023/01/11 11:13:37;;;;;;;8.50;3.85;;;20.40;62.20;;;;;;5029611;28;20100;-73
2023/01/11 11:16:34;;;;;;;7.80;3.92;;;20.40;62.30;;;;;;5025893;28;20124;-72
2023/01/11 11:19:00;;;;;;;8.48;3.60;;;20.40;62.20;;;;;;5029356;28;20037;-72
2023/01/11 11:21:28;;;;;;;9.45;4.20;;;20.40;62.20;;;;;;5029198;28;20120;-73
2023/01/11 11:23:59;;;;;;;8.18;3.70;;;20.40;62.60;;;;;;5029784;28;20029;-71
2023/01/11 11:26:37;;;;;;;9.60;3.83;;;20.40;62.70;;;;;;5029946;28;20056;-72
2023/01/11 11:29:10;;;;;;;10.27;3.92;;;20.40;62.80;;;;;;5028491;28;20037;-72
2023/01/11 11:31:42;;;;;;;10.68;3.60;;;20.40;62.90;;;;;;5011742;28;20033;-72
2023/01/11 11:34:19;;;;;;;37.13;25.60;;;20.40;62.70;;;;;;5012515;28;20079;-71
2023/01/11 11:36:47;;;;;;;38.92;24.45;;;20.20;60.30;;;;;;5019804;28;20022;-72
2023/01/11 11:39:28;;;;;;;37.67;27.70;;;20.10;57.80;;;;;;5019898;28;20033;-72
2023/01/11 11:42:07;;;;;;;36.88;24.50;;;20.10;58.10;;;;;;5022618;28;20044;-72
2023/01/11 11:44:33;;;;;;;27.88;17.60;;;20.20;60.20;;;;;;5011304;28;20314;-72
2023/01/11 11:47:01;;;;;;;27.40;18.85;;;20.20;60.50;;;;;;5010287;28;20440;-72
2023/01/11 11:49:30;;;;;;;28.38;17.95;;;20.20;60.10;;;;;;5026443;28;20112;-72
2023/01/11 11:51:58;;;;;;;26.98;17.75;;;20.20;60.10;;;;;;5006617;28;20035;-72
2023/01/11 11:54:26;;;;;;;28.80;17.70;;;20.20;59.80;;;;;;5006113;28;20045;-72
2023/01/11 11:56:53;;;;;;;27.48;17.27;;;20.30;59.90;;;;;;5008188;28;20029;-70
2023/01/11 11:59:22;;;;;;;26.65;17.25;;;20.30;59.90;;;;;;5009520;28;20026;-72
2023/01/11 12:02:02;;;;;;;28.27;16.40;;;20.30;60.00;;;;;;4991278;28;20156;-72
2023/01/11 12:04:39;;;;;;;24.52;16.52;;;20.30;60.10;;;;;;5009509;28;20041;-72
2023/01/11 12:07:13;;;;;;;24.30;16.65;;;20.40;60.20;;;;;;5009353;28;20026;-72
2023/01/11 12:09:44;;;;;;;24.92;16.38;;;20.40;60.30;;;;;;5009642;28;20053;-72
2023/01/11 12:12:16;;;;;;;26.10;16.70;;;20.40;60.50;;;;;;5011485;28;20461;-72
2023/01/11 12:14:42;;;;;;;24.65;15.75;;;20.40;60.50;;;;;;5028306;28;20033;-73
2023/01/11 12:17:24;;;;;;;25.70;16.08;;;20.40;60.60;;;;;;5028814;28;20084;-72
2023/01/11 12:19:50;;;;;;;23.33;15.60;;;20.40;60.70;;;;;;5022266;28;20386;-73
2023/01/11 12:22:24;;;;;;;23.83;16.38;;;20.40;60.70;;;;;;5010567;28;20109;-72
2023/01/11 12:25:21;;;;;;;24.50;15.10;;;20.40;60.80;;;;;;5028890;28;20115;-72
2023/01/11 12:28:00;;;;;;;24.98;15.25;;;20.40;60.90;;;;;;5029048;28;20412;-72
2023/01/11 12:30:44;;;;;;;84.30;53.95;;;20.40;60.90;;;;;;5028796;28;20036;-68
2023/01/11 12:33:31;;;;;;;35.65;20.45;;;20.30;60.10;;;;;;5028486;28;20029;-69
2023/01/11 12:36:06;;;;;;;29.02;14.95;;;19.50;55.70;;;;;;5027422;28;20873;-72
2023/01/11 12:39:05;;;;;;;32.88;14.20;;;19.30;56.20;;;;;;5028636;28;20120;-72
2023/01/11 12:42:22;;;;;;;24.55;14.13;;;19.50;56.70;;;;;;5028005;28;20037;-72
2023/01/11 12:45:10;;;;;;;23.50;14.05;;;19.60;56.70;;;;;;4965046;28;20031;-72
2023/01/11 12:47:51;;;;;;;24.98;14.88;;;19.80;57.20;;;;;;5026852;28;20082;-72
2023/01/11 12:50:24;;;;;;;26.63;14.15;;;19.80;57.30;;;;;;5011121;28;20048;-72
2023/01/11 12:53:23;;;;;;;27.33;14.55;;;19.90;57.40;;;;;;5028038;28;20564;-72
2023/01/11 12:56:14;;;;;;;23.13;12.97;;;20.00;57.10;;;;;;5028622;28;20037;-72
2023/01/11 12:58:53;;;;;;;21.63;12.70;;;20.00;57.40;;;;;;4994233;28;20159;-72
2023/01/11 13:01:24;;;;;;;21.55;12.52;;;20.00;57.30;;;;;;5028752;28;20030;-72
2023/01/11 13:04:20;;;;;;;20.73;13.38;;;20.00;57.50;;;;;;5028381;28;20086;-72
2023/01/11 13:07:29;;;;;;;21.20;11.68;;;20.10;57.60;;;;;;5028310;28;20034;-72
2023/01/11 13:10:28;;;;;;;21.47;11.97;;;20.10;57.60;;;;;;5011093;28;20033;-72
2023/01/11 13:13:20;;;;;;;19.85;12.15;;;20.10;57.70;;;;;;5028137;28;20787;-72
2023/01/11 13:16:13;;;;;;;20.55;11.90;;;20.10;57.90;;;;;;5028497;28;20021;-72
2023/01/11 13:19:05;;;;;;;18.45;11.00;;;20.10;58.10;;;;;;5027673;28;20034;-73
2023/01/11 13:21:35;;;;;;;19.92;11.50;;;20.10;58.30;;;;;;4965851;28;20481;-74
2023/01/11 13:24:26;;;;;;;21.20;12.30;;;20.10;58.20;;;;;;4961160;28;20085;-73
2023/01/11 13:26:57;;;;;;;22.90;12.15;;;20.10;58.40;;;;;;4988032;28;20034;-73
2023/01/11 13:29:28;;;;;;;25.65;12.27;;;20.10;60.20;;;;;;4986660;28;20425;-74
2023/01/11 13:31:58;;;;;;;23.52;11.75;;;20.10;60.10;;;;;;4954594;28;20401;-74
2023/01/11 13:34:48;;;;;;;20.75;12.30;;;20.10;59.50;;;;;;4971879;28;20042;-74
2023/01/11 13:37:24;;;;;;;;;;;20.20;59.20;;;;;;4989540;28;20073;-71
2023/01/11 13:40:16;;;;;;;20.58;12.00;;;20.30;61.10;;;;;;4987847;28;20199;-72